Time;durP1;ratioP1;P1;durP2;ratioP2;P2;SDS_P1;SDS_P2;PMS_P1;PMS_P2;Temp;Humidity;BMP_temperature;BMP_pressure;BME280_temperature;BME280_humidity;BME280_pressure;Samples;Min_cycle;Max_cycle;Signal;HPM_P1;HPM_P2
2022/09/06 00:00:44;;;;;;;;;;;;;;;;;;5015914;28;19914;-28
2022/09/06 00:03:10;;;;;;;;;;;;;;;;;;5015592;28;19962;-28
2022/09/06 00:05:36;;;;;;;;;;;;;;;;;;5016040;28;19910;-29
2022/09/06 00:08:01;;;;;;;;;;;;;;;;;;5015304;28;19921;-28
2022/09/06 00:10:27;;;;;;;;;;;;;;;;;;5015635;28;19910;-28
2022/09/06 00:12:53;;;;;;;;;;;;;;;;;;5015610;28;19913;-29
2022/09/06 00:15:21;;;;;;;;;;;;;;;;;;5014835;28;21692;-28
2022/09/06 00:17:47;;;;;;;;;;;;;;;;;;5015572;28;19964;-28
2022/09/06 00:20:13;;;;;;;;;;;;;;;;;;5016075;28;20380;-28
2022/09/06 00:22:39;;;;;;;;;;;;;;;;;;5016238;28;19960;-28
2022/09/06 00:25:05;;;;;;;;;;;;;;;;;;5015444;28;20370;-28
2022/09/06 00:27:31;;;;;;;;;;;;;;;;;;5015512;28;20261;-28
2022/09/06 00:29:57;;;;;;;;;;;;;;;;;;5015639;28;19910;-28
2022/09/06 00:32:23;;;;;;;;;;;;;;;;;;5015321;28;20005;-29
2022/09/06 00:34:49;;;;;;;;;;;;;;;;;;5015300;28;19917;-29
2022/09/06 00:37:15;;;;;;;;;;;;;;;;;;5015617;28;19968;-28
2022/09/06 00:39:41;;;;;;;;;;;;;;;;;;5015307;28;19924;-29
2022/09/06 00:42:07;;;;;;;;;;;;;;;;;;5015448;28;19913;-28
2022/09/06 00:44:33;;;;;;;;;;;;;;;;;;5015229;28;20431;-29
2022/09/06 00:46:59;;;;;;;;;;;;;;;;;;5015202;28;20308;-28
2022/09/06 00:49:25;;;;;;;;;;;;;;;;;;5015720;28;19910;-28
2022/09/06 00:51:51;;;;;;;;;;;;;;;;;;5015298;28;20005;-29
2022/09/06 00:54:17;;;;;;;;;;;;;;;;;;5015181;28;19910;-28
2022/09/06 00:56:43;;;;;;;;;;;;;;;;;;5015149;28;19914;-28
2022/09/06 00:59:09;;;;;;;;;;;;;;;;;;5015341;28;19917;-28
2022/09/06 01:01:35;;;;;;;;;;;;;;;;;;5015064;28;19920;-28
2022/09/06 01:04:01;;;;;;;;;;;;;;;;;;5014719;28;19926;-28
2022/09/06 01:06:27;;;;;;;;;;;;;;;;;;5015281;28;19914;-29
2022/09/06 01:08:53;;;;;;;;;;;;;;;;;;5014918;28;20004;-29
2022/09/06 01:11:19;;;;;;;;;;;;;;;;;;5015522;28;19968;-28
2022/09/06 01:13:45;;;;;;;;;;;;;;;;;;5014941;28;20426;-28
2022/09/06 01:16:11;;;;;;;;;;;;;;;;;;5015182;28;20340;-28
2022/09/06 01:18:37;;;;;;;;;;;;;;;;;;5015168;28;20004;-29
2022/09/06 01:21:03;;;;;;;;;;;;;;;;;;5018776;28;19922;-29
2022/09/06 01:23:29;;;;;;;;;;;;;;;;;;5018934;28;19953;-29
2022/09/06 01:25:55;;;;;;;;;;;;;;;;;;5018765;28;19917;-28
2022/09/06 01:28:21;;;;;;;;;;;;;;;;;;5018975;28;20393;-28
2022/09/06 01:30:47;;;;;;;;;;;;;;;;;;5018691;28;19917;-28
2022/09/06 01:33:13;;;;;;;;;;;;;;;;;;5018486;28;19917;-28
2022/09/06 01:35:39;;;;;;;;;;;;;;;;;;5018631;28;19967;-28
2022/09/06 01:38:05;;;;;;;;;;;;;;;;;;5018556;28;19918;-28
2022/09/06 01:40:35;;;;;;;;;;;;;;;;;;5018475;28;19913;-29
2022/09/06 01:43:01;;;;;;;;;;;;;;;;;;5018723;28;19948;-28
2022/09/06 01:45:27;;;;;;;;;;;;;;;;;;5018715;28;20359;-28
2022/09/06 01:47:53;;;;;;;;;;;;;;;;;;5017336;28;19924;-28
2022/09/06 01:50:18;;;;;;;;;;;;;;;;;;5018392;28;19975;-29
2022/09/06 01:52:44;;;;;;;;;;;;;;;;;;5018175;28;19913;-28
2022/09/06 01:55:10;;;;;;;;;;;;;;;;;;5018270;28;19945;-28
2022/09/06 01:57:36;;;;;;;;;;;;;;;;;;5018144;28;19913;-29
2022/09/06 02:00:04;;;;;;;;;;;;;;;;;;5018087;28;20000;-29
2022/09/06 02:02:30;;;;;;;;;;;;;;;;;;5018068;28;19920;-28
2022/09/06 02:04:57;;;;;;;;;;;;;;;;;;5017912;28;20265;-29
2022/09/06 02:07:23;;;;;;;;;;;;;;;;;;5018235;28;19940;-28
2022/09/06 02:09:49;;;;;;;;;;;;;;;;;;5017941;28;19913;-28
2022/09/06 02:12:15;;;;;;;;;;;;;;;;;;5018384;28;19914;-28
2022/09/06 02:14:41;;;;;;;;;;;;;;;;;;5018137;28;19916;-29
2022/09/06 02:17:07;;;;;;;;;;;;;;;;;;5017807;28;19956;-28
2022/09/06 02:19:33;;;;;;;;;;;;;;;;;;5017763;28;20065;-28
2022/09/06 02:21:59;;;;;;;;;;;;;;;;;;5017644;28;20418;-28
2022/09/06 02:24:25;;;;;;;;;;;;;;;;;;5017888;28;19914;-28
2022/09/06 02:26:51;;;;;;;;;;;;;;;;;;5017654;28;19964;-28
2022/09/06 02:29:16;;;;;;;;;;;;;;;;;;5017591;28;20398;-28
2022/09/06 02:31:42;;;;;;;;;;;;;;;;;;5016719;28;19924;-29
2022/09/06 02:34:08;;;;;;;;;;;;;;;;;;5017787;28;19910;-28
2022/09/06 02:36:34;;;;;;;;;;;;;;;;;;5017759;28;19914;-29
2022/09/06 02:39:00;;;;;;;;;;;;;;;;;;5017425;28;20299;-29
2022/09/06 02:41:26;;;;;;;;;;;;;;;;;;5017397;28;19921;-28
2022/09/06 02:43:53;;;;;;;;;;;;;;;;;;5017209;28;19913;-29
2022/09/06 02:46:19;;;;;;;;;;;;;;;;;;5017546;28;19913;-28
2022/09/06 02:48:45;;;;;;;;;;;;;;;;;;5017473;28;19910;-29
2022/09/06 02:51:11;;;;;;;;;;;;;;;;;;5017171;28;19949;-28
2022/09/06 02:53:37;;;;;;;;;;;;;;;;;;5017322;28;19918;-28
2022/09/06 02:56:03;;;;;;;;;;;;;;;;;;5017325;28;19913;-28
2022/09/06 02:58:29;;;;;;;;;;;;;;;;;;5017004;28;20375;-29
2022/09/06 03:00:56;;;;;;;;;;;;;;;;;;5017231;28;19924;-28
2022/09/06 03:03:22;;;;;;;;;;;;;;;;;;5016742;28;20268;-28
2022/09/06 03:05:48;;;;;;;;;;;;;;;;;;5017172;28;20004;-29
2022/09/06 03:08:14;;;;;;;;;;;;;;;;;;5017643;28;19911;-29
2022/09/06 03:10:40;;;;;;;;;;;;;;;;;;5017138;28;19913;-28
2022/09/06 03:13:06;;;;;;;;;;;;;;;;;;5016991;28;20298;-28
2022/09/06 03:15:32;;;;;;;;;;;;;;;;;;5016748;28;19924;-28
2022/09/06 03:17:58;;;;;;;;;;;;;;;;;;5016892;28;19913;-28
2022/09/06 03:20:24;;;;;;;;;;;;;;;;;;5017406;28;20341;-28
2022/09/06 03:22:50;;;;;;;;;;;;;;;;;;5016671;28;19976;-28
2022/09/06 03:25:16;;;;;;;;;;;;;;;;;;5016753;28;19914;-29
2022/09/06 03:27:42;;;;;;;;;;;;;;;;;;5016472;28;19936;-29
2022/09/06 03:30:08;;;;;;;;;;;;;;;;;;5016427;28;19920;-28
2022/09/06 03:32:34;;;;;;;;;;;;;;;;;;5016302;28;19914;-28
2022/09/06 03:35:00;;;;;;;;;;;;;;;;;;5016423;28;19909;-26
2022/09/06 03:37:26;;;;;;;;;;;;;;;;;;5016872;28;20352;-28
2022/09/06 03:39:52;;;;;;;;;;;;;;;;;;5016235;28;19913;-28
2022/09/06 03:42:18;;;;;;;;;;;;;;;;;;5015745;28;19909;-29
2022/09/06 03:44:44;;;;;;;;;;;;;;;;;;5015727;28;19924;-29
2022/09/06 03:47:10;;;;;;;;;;;;;;;;;;5016662;28;20028;-29
2022/09/06 03:49:36;;;;;;;;;;;;;;;;;;5016036;28;19910;-29
2022/09/06 03:52:02;;;;;;;;;;;;;;;;;;5016179;28;19913;-28
2022/09/06 03:54:28;;;;;;;;;;;;;;;;;;5015969;28;20261;-29
2022/09/06 03:56:54;;;;;;;;;;;;;;;;;;5015950;28;19976;-28
2022/09/06 03:59:20;;;;;;;;;;;;;;;;;;5016101;28;19913;-28
2022/09/06 04:01:46;;;;;;;;;;;;;;;;;;5015964;28;20257;-29
2022/09/06 04:04:12;;;;;;;;;;;;;;;;;;5015448;28;20024;-29
2022/09/06 04:06:38;;;;;;;;;;;;;;;;;;5015534;28;20346;-29
2022/09/06 04:09:04;;;;;;;;;;;;;;;;;;5015654;28;19910;-29
2022/09/06 04:11:30;;;;;;;;;;;;;;;;;;5015565;28;20008;-29
2022/09/06 04:13:56;;;;;;;;;;;;;;;;;;5015558;28;20340;-29
2022/09/06 04:16:22;;;;;;;;;;;;;;;;;;5015799;28;19914;-28
2022/09/06 04:18:48;;;;;;;;;;;;;;;;;;5015872;28;19910;-28
2022/09/06 04:21:14;;;;;;;;;;;;;;;;;;5016238;28;19920;-28
2022/09/06 04:23:40;;;;;;;;;;;;;;;;;;5015160;28;19918;-29
2022/09/06 04:26:06;;;;;;;;;;;;;;;;;;5015465;28;19914;-29
2022/09/06 04:28:31;;;;;;;;;;;;;;;;;;5015498;28;20340;-29
2022/09/06 04:30:58;;;;;;;;;;;;;;;;;;5015217;28;20003;-28
2022/09/06 04:33:26;;;;;;;;;;;;;;;;;;5015221;28;20336;-29
2022/09/06 04:35:52;;;;;;;;;;;;;;;;;;5015893;28;19929;-28
2022/09/06 04:38:18;;;;;;;;;;;;;;;;;;5015419;28;19913;-28
2022/09/06 04:40:44;;;;;;;;;;;;;;;;;;5015255;28;19909;-29
2022/09/06 04:43:10;;;;;;;;;;;;;;;;;;5015118;28;19924;-28
2022/09/06 04:45:36;;;;;;;;;;;;;;;;;;5015028;28;19956;-28
2022/09/06 04:48:02;;;;;;;;;;;;;;;;;;5015409;28;19914;-28
2022/09/06 04:50:28;;;;;;;;;;;;;;;;;;5014963;28;20285;-29
2022/09/06 04:52:54;;;;;;;;;;;;;;;;;;5014815;28;19913;-29
2022/09/06 04:55:20;;;;;;;;;;;;;;;;;;5014973;28;19968;-29
2022/09/06 04:57:46;;;;;;;;;;;;;;;;;;5015069;28;19917;-28
2022/09/06 05:00:12;;;;;;;;;;;;;;;;;;5014704;28;20331;-28
2022/09/06 05:02:38;;;;;;;;;;;;;;;;;;5014450;28;20143;-28
2022/09/06 05:05:04;;;;;;;;;;;;;;;;;;5014855;28;19918;-29
2022/09/06 05:07:30;;;;;;;;;;;;;;;;;;5014569;28;19994;-28
2022/09/06 05:09:56;;;;;;;;;;;;;;;;;;5014711;28;19975;-28
2022/09/06 05:12:22;;;;;;;;;;;;;;;;;;5014587;28;19914;-29
2022/09/06 05:14:48;;;;;;;;;;;;;;;;;;5015019;28;19920;-28
2022/09/06 05:17:14;;;;;;;;;;;;;;;;;;5014682;28;19963;-28
2022/09/06 05:19:40;;;;;;;;;;;;;;;;;;5014946;28;20363;-28
2022/09/06 05:22:06;;;;;;;;;;;;;;;;;;5014550;28;20337;-28
2022/09/06 05:24:31;;;;;;;;;;;;;;;;;;5014498;28;19918;-28
2022/09/06 05:27:02;;;;;;;;;;;;;;;;;;5014822;28;20012;-29
2022/09/06 05:29:28;;;;;;;;;;;;;;;;;;5014524;28;20336;-29
2022/09/06 05:31:54;;;;;;;;;;;;;;;;;;5014738;28;19914;-28
2022/09/06 05:34:20;;;;;;;;;;;;;;;;;;5014782;28;19913;-28
2022/09/06 05:36:46;;;;;;;;;;;;;;;;;;5014691;28;19953;-29
2022/09/06 05:39:12;;;;;;;;;;;;;;;;;;5013591;28;19910;-29
2022/09/06 05:41:38;;;;;;;;;;;;;;;;;;5014526;28;19959;-29
2022/09/06 05:44:04;;;;;;;;;;;;;;;;;;5014423;28;20026;-29
2022/09/06 05:46:30;;;;;;;;;;;;;;;;;;5014703;28;19917;-29
2022/09/06 05:48:58;;;;;;;;;;;;;;;;;;5014962;28;20004;-29
2022/09/06 05:51:24;;;;;;;;;;;;;;;;;;5014617;28;19913;-29
2022/09/06 05:53:50;;;;;;;;;;;;;;;;;;5014522;28;19939;-28
2022/09/06 05:56:16;;;;;;;;;;;;;;;;;;5014565;28;19909;-29
2022/09/06 05:58:42;;;;;;;;;;;;;;;;;;5014470;28;20013;-29
2022/09/06 06:01:08;;;;;;;;;;;;;;;;;;5014645;28;19953;-29
2022/09/06 06:03:34;;;;;;;;;;;;;;;;;;5014110;28;19926;-29
2022/09/06 06:06:00;;;;;;;;;;;;;;;;;;5014986;28;19957;-28
2022/09/06 06:08:26;;;;;;;;;;;;;;;;;;5018262;28;19913;-28
2022/09/06 06:10:52;;;;;;;;;;;;;;;;;;5018280;28;19910;-29
2022/09/06 06:13:18;;;;;;;;;;;;;;;;;;5017921;28;20281;-28
2022/09/06 06:15:45;;;;;;;;;;;;;;;;;;5017999;28;19909;-28
2022/09/06 06:18:11;;;;;;;;;;;;;;;;;;5018133;28;19913;-29
2022/09/06 06:20:37;;;;;;;;;;;;;;;;;;5017891;28;19933;-29
2022/09/06 06:23:02;;;;;;;;;;;;;;;;;;5017966;28;19975;-29
2022/09/06 06:25:29;;;;;;;;;;;;;;;;;;5017723;28;20027;-29
2022/09/06 06:27:55;;;;;;;;;;;;;;;;;;5018761;28;19913;-29
2022/09/06 06:30:21;;;;;;;;;;;;;;;;;;5017679;28;20004;-28
2022/09/06 06:32:47;;;;;;;;;;;;;;;;;;5017692;28;19970;-29
2022/09/06 06:35:13;;;;;;;;;;;;;;;;;;5017867;28;19914;-28
2022/09/06 06:37:41;;;;;;;;;;;;;;;;;;5017479;28;19910;-28
2022/09/06 06:40:07;;;;;;;;;;;;;;;;;;5017781;28;19964;-28
2022/09/06 06:42:33;;;;;;;;;;;;;;;;;;5017239;28;20264;-29
2022/09/06 06:44:59;;;;;;;;;;;;;;;;;;5017262;28;19919;-28
2022/09/06 06:47:25;;;;;;;;;;;;;;;;;;5017296;28;19956;-29
2022/09/06 06:49:51;;;;;;;;;;;;;;;;;;5017534;28;20363;-29
2022/09/06 06:52:17;;;;;;;;;;;;;;;;;;5017065;28;20268;-29
2022/09/06 06:54:43;;;;;;;;;;;;;;;;;;5017436;28;19909;-28
2022/09/06 06:57:09;;;;;;;;;;;;;;;;;;5017066;28;19920;-28
2022/09/06 06:59:34;;;;;;;;;;;;;;;;;;5017322;28;20321;-29
2022/09/06 07:02:00;;;;;;;;;;;;;;;;;;5016867;28;19928;-29
2022/09/06 07:04:26;;;;;;;;;;;;;;;;;;5016705;28;20008;-28
2022/09/06 07:06:52;;;;;;;;;;;;;;;;;;5016902;28;19913;-28
2022/09/06 07:09:18;;;;;;;;;;;;;;;;;;5017139;28;19917;-28
2022/09/06 07:11:44;;;;;;;;;;;;;;;;;;5017008;28;19913;-28
2022/09/06 07:14:10;;;;;;;;;;;;;;;;;;5016729;28;20332;-28
2022/09/06 07:16:36;;;;;;;;;;;;;;;;;;5016830;28;19913;-28
2022/09/06 07:19:02;;;;;;;;;;;;;;;;;;5016628;28;20008;-28
2022/09/06 07:21:28;;;;;;;;;;;;;;;;;;5016908;28;19997;-28
2022/09/06 07:23:54;;;;;;;;;;;;;;;;;;5016396;28;20276;-28
2022/09/06 07:26:20;;;;;;;;;;;;;;;;;;5016733;28;20268;-28
2022/09/06 07:28:46;;;;;;;;;;;;;;;;;;5016517;28;19909;-28
2022/09/06 07:31:12;;;;;;;;;;;;;;;;;;5016846;28;20237;-28
2022/09/06 07:33:38;;;;;;;;;;;;;;;;;;5016355;28;19917;-28
2022/09/06 07:36:04;;;;;;;;;;;;;;;;;;5016675;28;19913;-28
2022/09/06 07:38:30;;;;;;;;;;;;;;;;;;5017420;28;19910;-28
2022/09/06 07:40:56;;;;;;;;;;;;;;;;;;5016406;28;20248;-28
2022/09/06 07:43:22;;;;;;;;;;;;;;;;;;5016276;28;19913;-28
2022/09/06 07:45:48;;;;;;;;;;;;;;;;;;5016378;28;19918;-28
2022/09/06 07:48:14;;;;;;;;;;;;;;;;;;5015418;28;20361;-28
2022/09/06 07:50:40;;;;;;;;;;;;;;;;;;5016575;28;20379;-28
2022/09/06 07:53:06;;;;;;;;;;;;;;;;;;5016372;28;19943;-28
2022/09/06 07:55:32;;;;;;;;;;;;;;;;;;5016163;28;20416;-28
2022/09/06 07:57:58;;;;;;;;;;;;;;;;;;5016173;28;19967;-28
2022/09/06 08:00:24;;;;;;;;;;;;;;;;;;5016348;28;19914;-28
2022/09/06 08:02:50;;;;;;;;;;;;;;;;;;5015900;28;19931;-28
2022/09/06 08:05:16;;;;;;;;;;;;;;;;;;5016061;28;20319;-28
2022/09/06 08:07:42;;;;;;;;;;;;;;;;;;5015864;28;19909;-28
2022/09/06 08:10:08;;;;;;;;;;;;;;;;;;5016209;28;19920;-28
2022/09/06 08:12:34;;;;;;;;;;;;;;;;;;5016210;28;19925;-28
2022/09/06 08:15:00;;;;;;;;;;;;;;;;;;5015872;28;19971;-28
2022/09/06 08:17:26;;;;;;;;;;;;;;;;;;5015760;28;19966;-28
2022/09/06 08:19:52;;;;;;;;;;;;;;;;;;5015573;28;19914;-28
2022/09/06 08:22:18;;;;;;;;;;;;;;;;;;5015584;28;19914;-28
2022/09/06 08:24:44;;;;;;;;;;;;;;;;;;5015468;28;20252;-28
2022/09/06 08:27:10;;;;;;;;;;;;;;;;;;5015804;28;19917;-28
2022/09/06 08:29:37;;;;;;;;;;;;;;;;;;5014914;28;20292;-28
2022/09/06 08:32:03;;;;;;;;;;;;;;;;;;5015582;28;19913;-28
2022/09/06 08:34:29;;;;;;;;;;;;;;;;;;5015524;28;20013;-28
2022/09/06 08:36:55;;;;;;;;;;;;;;;;;;5015429;28;19921;-28
2022/09/06 08:39:21;;;;;;;;;;;;;;;;;;5015453;28;19940;-28
2022/09/06 08:41:47;;;;;;;;;;;;;;;;;;5015630;28;19932;-28
2022/09/06 08:44:13;;;;;;;;;;;;;;;;;;5015204;28;19914;-28
2022/09/06 08:46:39;;;;;;;;;;;;;;;;;;5014351;28;19967;-28
2022/09/06 08:49:05;;;;;;;;;;;;;;;;;;5015351;28;19959;-28
2022/09/06 08:51:31;;;;;;;;;;;;;;;;;;5015510;28;19914;-27
2022/09/06 08:53:57;;;;;;;;;;;;;;;;;;5015164;28;19909;-28
2022/09/06 08:56:23;;;;;;;;;;;;;;;;;;5015492;28;20262;-28
2022/09/06 08:58:49;;;;;;;;;;;;;;;;;;5015163;28;19910;-28
2022/09/06 09:01:15;;;;;;;;;;;;;;;;;;5015515;28;19920;-28
2022/09/06 09:03:41;;;;;;;;;;;;;;;;;;5014897;28;19922;-28
2022/09/06 09:06:08;;;;;;;;;;;;;;;;;;5015134;28;19918;-28
2022/09/06 09:08:34;;;;;;;;;;;;;;;;;;5015080;28;19945;-28
2022/09/06 09:11:00;;;;;;;;;;;;;;;;;;5014996;28;19918;-28
2022/09/06 09:13:26;;;;;;;;;;;;;;;;;;5015258;28;19921;-28
2022/09/06 09:15:52;;;;;;;;;;;;;;;;;;5015154;28;20418;-28
2022/09/06 09:18:18;;;;;;;;;;;;;;;;;;5015808;28;19913;-28
2022/09/06 09:20:44;;;;;;;;;;;;;;;;;;5014989;28;20375;-28
2022/09/06 09:23:10;;;;;;;;;;;;;;;;;;5014922;28;19914;-28
2022/09/06 09:25:36;;;;;;;;;;;;;;;;;;5014924;28;19921;-28
2022/09/06 09:28:02;;;;;;;;;;;;;;;;;;5014874;28;20284;-28
2022/09/06 09:30:28;;;;;;;;;;;;;;;;;;5014773;28;19922;-28
2022/09/06 09:32:54;;;;;;;;;;;;;;;;;;5014776;28;19922;-28
2022/09/06 09:35:20;;;;;;;;;;;;;;;;;;5014894;28;19940;-27
2022/09/06 09:37:46;;;;;;;;;;;;;;;;;;5014856;28;19913;-28
2022/09/06 09:40:13;;;;;;;;;;;;;;;;;;5015637;28;19987;-28
2022/09/06 09:42:39;;;;;;;;;;;;;;;;;;5018591;28;19914;-28
2022/09/06 09:45:05;;;;;;;;;;;;;;;;;;5018563;28;19968;-28
2022/09/06 09:47:31;;;;;;;;;;;;;;;;;;5018536;28;19989;-28
2022/09/06 09:49:57;;;;;;;;;;;;;;;;;;5018594;28;19916;-28
2022/09/06 09:52:22;;;;;;;;;;;;;;;;;;5018461;28;19918;-28
2022/09/06 09:54:52;;;;;;;;;;;;;;;;;;5018416;28;19970;-28
2022/09/06 09:57:18;;;;;;;;;;;;;;;;;;5018673;28;19992;-28
2022/09/06 09:59:44;;;;;;;;;;;;;;;;;;5018268;28;19983;-28
2022/09/06 10:02:10;;;;;;;;;;;;;;;;;;5018581;28;19947;-28
2022/09/06 10:04:36;;;;;;;;;;;;;;;;;;5018002;28;20031;-28
2022/09/06 10:07:02;;;;;;;;;;;;;;;;;;5018170;28;19914;-28
2022/09/06 10:09:28;;;;;;;;;;;;;;;;;;5018140;28;19909;-28
2022/09/06 10:11:54;;;;;;;;;;;;;;;;;;5019235;28;19945;-28
2022/09/06 10:14:20;;;;;;;;;;;;;;;;;;5018574;28;20407;-28
2022/09/06 10:16:46;;;;;;;;;;;;;;;;;;5017962;28;19941;-28
2022/09/06 10:19:12;;;;;;;;;;;;;;;;;;5018005;28;20256;-28
2022/09/06 10:21:38;;;;;;;;;;;;;;;;;;5017990;28;19968;-28
2022/09/06 10:24:04;;;;;;;;;;;;;;;;;;5017688;28;19976;-28
2022/09/06 10:26:30;;;;;;;;;;;;;;;;;;5018138;28;20336;-28
2022/09/06 10:28:56;;;;;;;;;;;;;;;;;;5018057;28;19914;-28
2022/09/06 10:31:22;;;;;;;;;;;;;;;;;;5017691;28;19913;-28
2022/09/06 10:33:48;;;;;;;;;;;;;;;;;;5017596;28;19917;-28
2022/09/06 10:36:14;;;;;;;;;;;;;;;;;;5017516;28;19913;-28
2022/09/06 10:38:40;;;;;;;;;;;;;;;;;;5017386;28;19913;-28
2022/09/06 10:41:06;;;;;;;;;;;;;;;;;;5017492;28;19913;-28
2022/09/06 10:43:32;;;;;;;;;;;;;;;;;;5017325;28;19917;-28
2022/09/06 10:45:58;;;;;;;;;;;;;;;;;;5017288;28;20004;-28
2022/09/06 10:48:24;;;;;;;;;;;;;;;;;;5017282;28;19917;-28
2022/09/06 10:50:50;;;;;;;;;;;;;;;;;;5017553;28;20319;-28
2022/09/06 10:53:16;;;;;;;;;;;;;;;;;;5016747;28;19910;-28
2022/09/06 10:55:42;;;;;;;;;;;;;;;;;;5017425;28;20282;-29
2022/09/06 10:58:09;;;;;;;;;;;;;;;;;;5017142;28;19949;-28
2022/09/06 11:00:35;;;;;;;;;;;;;;;;;;5017505;28;19948;-28
2022/09/06 11:03:01;;;;;;;;;;;;;;;;;;5016706;28;20272;-28
2022/09/06 11:05:27;;;;;;;;;;;;;;;;;;5017269;28;19924;-28
2022/09/06 11:07:52;;;;;;;;;;;;;;;;;;5017266;28;19914;-28
2022/09/06 11:10:18;;;;;;;;;;;;;;;;;;5017809;28;19996;-28
2022/09/06 11:12:45;;;;;;;;;;;;;;;;;;5016836;28;20359;-28
2022/09/06 11:15:11;;;;;;;;;;;;;;;;;;5016851;28;19926;-28
2022/09/06 11:17:39;;;;;;;;;;;;;;;;;;5015813;28;19910;-28
2022/09/06 11:20:05;;;;;;;;;;;;;;;;;;5016841;28;20304;-28
2022/09/06 11:22:31;;;;;;;;;;;;;;;;;;5016783;28;19914;-28
2022/09/06 11:24:57;;;;;;;;;;;;;;;;;;5016671;28;19913;-29
2022/09/06 11:27:23;;;;;;;;;;;;;;;;;;5016850;28;19978;-28
2022/09/06 11:29:55;;;;;;;;;;;;;;;;;;5016814;28;19913;-28
2022/09/06 11:32:21;;;;;;;;;;;;;;;;;;5016453;28;19925;-28
2022/09/06 11:34:47;;;;;;;;;;;;;;;;;;5016780;28;19909;-28
2022/09/06 11:37:13;;;;;;;;;;;;;;;;;;5016435;28;20008;-28
2022/09/06 11:39:39;;;;;;;;;;;;;;;;;;5016681;28;19952;-28
2022/09/06 11:42:05;;;;;;;;;;;;;;;;;;5016307;28;20332;-27
2022/09/06 11:44:31;;;;;;;;;;;;;;;;;;5016342;28;20004;-28
2022/09/06 11:46:57;;;;;;;;;;;;;;;;;;5016264;28;20237;-28
2022/09/06 11:49:23;;;;;;;;;;;;;;;;;;5016574;28;19909;-28
2022/09/06 11:51:49;;;;;;;;;;;;;;;;;;5016135;28;19921;-28
2022/09/06 11:54:15;;;;;;;;;;;;;;;;;;5016189;28;20245;-28
2022/09/06 11:56:41;;;;;;;;;;;;;;;;;;5016193;28;19914;-28
2022/09/06 11:59:07;;;;;;;;;;;;;;;;;;5016477;28;19910;-28
2022/09/06 12:01:33;;;;;;;;;;;;;;;;;;5016111;28;19984;-28
2022/09/06 12:03:59;;;;;;;;;;;;;;;;;;5015001;28;19921;-28
2022/09/06 12:06:25;;;;;;;;;;;;;;;;;;5016017;28;19914;-28
2022/09/06 12:08:54;;;;;;;;;;;;;;;;;;5015979;28;20008;-28
2022/09/06 12:11:19;;;;;;;;;;;;;;;;;;5016176;28;19925;-28
2022/09/06 12:13:46;;;;;;;;;;;;;;;;;;5015799;28;19909;-28
2022/09/06 12:16:12;;;;;;;;;;;;;;;;;;5016094;28;20012;-28
2022/09/06 12:18:38;;;;;;;;;;;;;;;;;;5015787;28;20018;-28
2022/09/06 12:21:04;;;;;;;;;;;;;;;;;;5015678;28;19925;-28
2022/09/06 12:23:30;;;;;;;;;;;;;;;;;;5015596;28;20268;-28
2022/09/06 12:25:56;;;;;;;;;;;;;;;;;;5015897;28;19913;-28
2022/09/06 12:28:22;;;;;;;;;;;;;;;;;;5015836;28;20332;-28
2022/09/06 12:30:48;;;;;;;;;;;;;;;;;;5015620;28;19913;-28
2022/09/06 12:33:14;;;;;;;;;;;;;;;;;;5015773;28;19944;-28
2022/09/06 12:35:40;;;;;;;;;;;;;;;;;;5016110;28;20360;-28
2022/09/06 12:38:06;;;;;;;;;;;;;;;;;;5015695;28;19913;-28
2022/09/06 12:40:32;;;;;;;;;;;;;;;;;;5015313;28;20234;-28
2022/09/06 12:42:58;;;;;;;;;;;;;;;;;;5015451;28;19945;-28
2022/09/06 12:45:24;;;;;;;;;;;;;;;;;;5015430;28;19928;-28
2022/09/06 12:47:51;;;;;;;;;;;;;;;;;;5015420;28;19925;-28
2022/09/06 12:50:17;;;;;;;;;;;;;;;;;;5015852;28;19925;-28
2022/09/06 12:52:43;;;;;;;;;;;;;;;;;;5014947;28;20003;-28
2022/09/06 12:55:09;;;;;;;;;;;;;;;;;;5015294;28;19975;-28
2022/09/06 12:57:35;;;;;;;;;;;;;;;;;;5015066;28;19917;-28
2022/09/06 13:00:00;;;;;;;;;;;;;;;;;;5015034;28;19917;-28
2022/09/06 13:02:27;;;;;;;;;;;;;;;;;;5014683;28;19924;-27
2022/09/06 13:04:53;;;;;;;;;;;;;;;;;;5014895;28;19909;-28
2022/09/06 13:07:19;;;;;;;;;;;;;;;;;;5014962;28;19914;-28
2022/09/06 13:09:45;;;;;;;;;;;;;;;;;;5014900;28;20272;-28
2022/09/06 13:12:12;;;;;;;;;;;;;;;;;;5014906;28;19924;-32
2022/09/06 13:14:38;;;;;;;;;;;;;;;;;;5015059;28;19913;-28
2022/09/06 13:17:04;;;;;;;;;;;;;;;;;;5019245;28;19913;-28
2022/09/06 13:19:30;;;;;;;;;;;;;;;;;;5019072;28;19937;-27
2022/09/06 13:21:57;;;;;;;;;;;;;;;;;;5019173;28;20008;-28
2022/09/06 13:24:23;;;;;;;;;;;;;;;;;;5018930;28;20371;-28
2022/09/06 13:26:49;;;;;;;;;;;;;;;;;;5019416;28;19914;-28
2022/09/06 13:29:15;;;;;;;;;;;;;;;;;;5018855;28;20395;-28
2022/09/06 13:31:41;;;;;;;;;;;;;;;;;;5019099;28;20368;-28
2022/09/06 13:34:07;;;;;;;;;;;;;;;;;;5018997;28;19920;-28
2022/09/06 13:36:33;;;;;;;;;;;;;;;;;;5018697;28;19996;-27
2022/09/06 13:39:02;;;;;;;;;;;;;;;;;;5018624;28;19919;-27
2022/09/06 13:41:28;;;;;;;;;;;;;;;;;;5018683;28;20004;-27
2022/09/06 13:43:54;;;;;;;;;;;;;;;;;;5018449;28;19960;-27
2022/09/06 13:46:20;;;;;;;;;;;;;;;;;;5018625;28;19918;-27
2022/09/06 13:48:46;;;;;;;;;;;;;;;;;;5018611;28;19916;-27
2022/09/06 13:51:12;;;;;;;;;;;;;;;;;;5018725;28;19940;-28
2022/09/06 13:53:37;;;;;;;;;;;;;;;;;;5018658;28;19909;-28
2022/09/06 13:56:07;;;;;;;;;;;;;;;;;;5018416;28;19944;-28
2022/09/06 13:58:33;;;;;;;;;;;;;;;;;;5018369;28;19941;-28
2022/09/06 14:00:59;;;;;;;;;;;;;;;;;;5018370;28;19921;-28
2022/09/06 14:03:25;;;;;;;;;;;;;;;;;;5018003;28;19922;-28
2022/09/06 14:05:51;;;;;;;;;;;;;;;;;;5018466;28;19917;-28
2022/09/06 14:08:17;;;;;;;;;;;;;;;;;;5018423;28;20295;-28
2022/09/06 14:10:45;;;;;;;;;;;;;;;;;;5018215;28;19936;-29
2022/09/06 14:13:11;;;;;;;;;;;;;;;;;;5018369;28;19924;-29
2022/09/06 14:15:37;;;;;;;;;;;;;;;;;;5018083;28;20276;-28
2022/09/06 14:18:03;;;;;;;;;;;;;;;;;;5018050;28;19920;-28
2022/09/06 14:20:29;;;;;;;;;;;;;;;;;;5018020;28;20027;-28
2022/09/06 14:22:54;;;;;;;;;;;;;;;;;;5018191;28;20303;-28
2022/09/06 14:25:20;;;;;;;;;;;;;;;;;;5017813;28;19917;-29
2022/09/06 14:27:47;;;;;;;;;;;;;;;;;;5017775;28;19968;-28
2022/09/06 14:30:13;;;;;;;;;;;;;;;;;;5017836;28;19913;-28
2022/09/06 14:32:39;;;;;;;;;;;;;;;;;;5017996;28;19992;-29
2022/09/06 14:35:05;;;;;;;;;;;;;;;;;;5017986;28;19925;-29
2022/09/06 14:37:31;;;;;;;;;;;;;;;;;;5017577;28;19989;-27
2022/09/06 14:39:57;;;;;;;;;;;;;;;;;;5017723;28;19967;-27
2022/09/06 14:42:23;;;;;;;;;;;;;;;;;;5017529;28;19913;-27
2022/09/06 14:44:49;;;;;;;;;;;;;;;;;;5017756;28;19940;-27
2022/09/06 14:47:15;;;;;;;;;;;;;;;;;;5017507;28;20348;-27
2022/09/06 14:49:41;;;;;;;;;;;;;;;;;;5017442;28;19913;-27
2022/09/06 14:52:07;;;;;;;;;;;;;;;;;;5017624;28;19945;-26
2022/09/06 14:54:33;;;;;;;;;;;;;;;;;;5017617;28;20393;-27
2022/09/06 14:56:59;;;;;;;;;;;;;;;;;;5017183;28;19917;-27
2022/09/06 14:59:25;;;;;;;;;;;;;;;;;;5017288;28;19909;-27
2022/09/06 15:01:51;;;;;;;;;;;;;;;;;;5017239;28;19968;-27
2022/09/06 15:04:17;;;;;;;;;;;;;;;;;;5016854;28;20245;-27
2022/09/06 15:06:46;;;;;;;;;;;;;;;;;;5017089;28;20271;-27
2022/09/06 15:09:12;;;;;;;;;;;;;;;;;;5017070;28;19982;-27
2022/09/06 15:11:38;;;;;;;;;;;;;;;;;;5017243;28;19913;-27
2022/09/06 15:14:05;;;;;;;;;;;;;;;;;;5017107;28;19955;-27
2022/09/06 15:16:31;;;;;;;;;;;;;;;;;;5016806;28;19914;-27
2022/09/06 15:18:57;;;;;;;;;;;;;;;;;;5017108;28;19971;-27
2022/09/06 15:21:24;;;;;;;;;;;;;;;;;;5016749;28;20344;-27
2022/09/06 15:23:50;;;;;;;;;;;;;;;;;;5016591;28;20292;-27
2022/09/06 15:26:17;;;;;;;;;;;;;;;;;;5017067;28;19909;-27
2022/09/06 15:28:43;;;;;;;;;;;;;;;;;;5016977;28;19988;-27
2022/09/06 15:31:09;;;;;;;;;;;;;;;;;;5016656;28;19932;-27
2022/09/06 15:33:35;;;;;;;;;;;;;;;;;;5016594;28;19921;-27
2022/09/06 15:36:04;;;;;;;;;;;;;;;;;;5015734;28;19945;-26
2022/09/06 15:38:30;;;;;;;;;;;;;;;;;;5016748;28;20004;-27
2022/09/06 15:40:57;;;;;;;;;;;;;;;;;;5015597;28;19949;-27
2022/09/06 15:43:23;;;;;;;;;;;;;;;;;;5016339;28;19909;-27
2022/09/06 15:45:49;;;;;;;;;;;;;;;;;;5016488;28;19917;-27
2022/09/06 15:48:15;;;;;;;;;;;;;;;;;;5016588;28;19972;-27
2022/09/06 15:50:41;;;;;;;;;;;;;;;;;;5016545;28;19914;-27
2022/09/06 15:53:07;;;;;;;;;;;;;;;;;;5016437;28;19921;-27
2022/09/06 15:58:17;;;;;;;;;;;;;;;;;;5016249;28;20021;-27
2022/09/06 16:00:43;;;;;;;;;;;;;;;;;;5016092;28;19952;-27
2022/09/06 16:03:09;;;;;;;;;;;;;;;;;;5016005;28;19921;-27
2022/09/06 16:05:35;;;;;;;;;;;;;;;;;;5015924;28;19917;-27
2022/09/06 16:08:01;;;;;;;;;;;;;;;;;;5015964;28;19913;-29
2022/09/06 16:10:28;;;;;;;;;;;;;;;;;;5016254;28;19949;-29
2022/09/06 16:12:54;;;;;;;;;;;;;;;;;;5016115;28;20290;-28
2022/09/06 16:15:21;;;;;;;;;;;;;;;;;;5016099;28;19932;-29
2022/09/06 16:17:47;;;;;;;;;;;;;;;;;;5015814;28;19914;-28
2022/09/06 16:20:13;;;;;;;;;;;;;;;;;;5015749;28;19940;-28
2022/09/06 16:22:39;;;;;;;;;;;;;;;;;;5015707;28;20351;-29
2022/09/06 16:25:05;;;;;;;;;;;;;;;;;;5015862;28;19917;-28
2022/09/06 16:27:31;;;;;;;;;;;;;;;;;;5015854;28;19913;-29
2022/09/06 16:29:57;;;;;;;;;;;;;;;;;;5015968;28;20333;-29
2022/09/06 16:32:23;;;;;;;;;;;;;;;;;;5015422;28;19964;-28
2022/09/06 16:34:49;;;;;;;;;;;;;;;;;;5015800;28;19918;-29
2022/09/06 16:37:15;;;;;;;;;;;;;;;;;;5015514;28;20299;-28
2022/09/06 16:39:41;;;;;;;;;;;;;;;;;;5015497;28;19916;-28